Time;durP1;ratioP1;P1;durP2;ratioP2;P2;SDS_P1;SDS_P2;PMS_P1;PMS_P2;Temp;Humidity;BMP_temperature;BMP_pressure;BME280_temperature;BME280_humidity;BME280_pressure;Samples;Min_cycle;Max_cycle;Signal;HPM_P1;HPM_P2
2021/11/03 00:02:23;;;;;;;31.50;24.90;;;;;;;9.49;72.76;99250.95;118332;1179;23421;-79
2021/11/03 00:04:51;;;;;;;28.40;22.60;;;;;;;9.49;72.73;99253.30;118386;1177;23510;-79
2021/11/03 00:07:19;;;;;;;32.00;24.40;;;;;;;9.47;72.61;99250.16;118763;1176;21863;-79
2021/11/03 00:09:50;;;;;;;26.90;23.30;;;;;;;9.47;72.68;99247.75;118773;1176;22746;-79
2021/11/03 00:12:20;;;;;;;26.40;22.80;;;;;;;9.45;72.68;99252.48;118357;1177;21880;-79
2021/11/03 00:14:48;;;;;;;26.80;22.40;;;;;;;9.44;72.78;99255.04;118056;1180;21894;-79
2021/11/03 00:17:19;;;;;;;28.60;23.60;;;;;;;9.45;72.74;99256.08;118291;1178;24186;-80
2021/11/03 00:19:48;;;;;;;27.80;21.80;;;;;;;9.42;72.65;99260.23;118430;1174;24134;-79
2021/11/03 00:22:20;;;;;;;27.00;22.60;;;;;;;9.40;72.56;99261.52;118468;1174;21896;-79
2021/11/03 00:24:48;;;;;;;28.20;24.80;;;;;;;9.37;72.53;99269.08;118796;1175;21876;-79
2021/11/03 00:27:18;;;;;;;29.00;23.30;;;;;;;9.36;72.68;99274.00;118926;1175;21874;-80
2021/11/03 00:29:50;;;;;;;27.30;23.10;;;;;;;9.36;73.01;99279.43;118797;1170;21890;-79
2021/11/03 00:32:18;;;;;;;28.10;23.20;;;;;;;9.35;72.98;99280.20;119259;1170;22489;-79
2021/11/03 00:34:47;;;;;;;29.30;22.10;;;;;;;9.35;72.88;99279.55;119283;1168;22681;-79
2021/11/03 00:37:15;;;;;;;28.40;23.20;;;;;;;9.34;73.07;99281.01;119275;1170;21867;-79
2021/11/03 00:39:44;;;;;;;30.40;23.10;;;;;;;9.36;73.14;99283.41;119327;1170;24166;-79
2021/11/03 00:42:12;;;;;;;29.50;24.10;;;;;;;9.37;73.11;99284.52;119258;1170;23407;-78
2021/11/03 00:44:40;;;;;;;29.10;22.80;;;;;;;9.37;73.06;99283.48;119283;1170;21882;-78
2021/11/03 00:47:10;;;;;;;29.90;22.90;;;;;;;9.37;73.03;99283.83;119237;1171;22043;-78
2021/11/03 00:49:41;;;;;;;27.20;23.10;;;;;;;9.37;73.06;99287.19;119450;1166;22877;-78
2021/11/03 00:52:10;;;;;;;28.60;24.00;;;;;;;9.35;73.03;99285.67;119259;1170;22368;-78
2021/11/03 00:54:38;;;;;;;29.00;23.80;;;;;;;9.34;72.87;99285.83;119294;1170;21865;-79
2021/11/03 00:57:09;;;;;;;28.40;24.10;;;;;;;9.34;72.96;99287.95;119234;1170;24122;-79
2021/11/03 00:59:38;;;;;;;26.10;22.00;;;;;;;9.35;73.06;99286.44;118813;1171;21970;-78
2021/11/03 01:02:07;;;;;;;30.00;23.90;;;;;;;9.35;73.02;99285.27;118694;1176;23582;-79
2021/11/03 01:04:35;;;;;;;25.80;22.80;;;;;;;9.35;72.99;99285.67;118641;1175;22801;-78
2021/11/03 01:07:04;;;;;;;27.30;23.30;;;;;;;9.35;73.07;99282.67;118740;1175;23619;-78
2021/11/03 01:09:31;;;;;;;29.90;23.20;;;;;;;9.35;73.03;99286.21;118942;1175;21902;-78
2021/11/03 01:11:59;;;;;;;28.70;21.30;;;;;;;9.34;72.91;99286.67;118413;1177;23593;-78
2021/11/03 01:14:36;;;;;;;28.60;23.10;;;;;;;9.34;73.05;99290.36;118359;1175;21882;-78
2021/11/03 01:17:10;;;;;;;26.80;22.50;;;;;;;9.33;73.01;99293.11;118471;1173;23026;-78
2021/11/03 01:19:38;;;;;;;29.30;23.90;;;;;;;9.33;72.89;99295.66;118180;1165;21872;-78
2021/11/03 01:22:06;;;;;;;27.50;22.40;;;;;;;9.33;73.01;99293.34;118345;1177;23586;-78
2021/11/03 01:24:33;;;;;;;28.70;24.00;;;;;;;9.34;73.07;99295.88;118475;1174;23518;-78
2021/11/03 01:27:02;;;;;;;26.60;22.80;;;;;;;9.34;73.13;99293.86;118252;1175;21897;-78
2021/11/03 01:29:30;;;;;;;26.90;21.40;;;;;;;9.35;73.13;99293.41;118412;1175;21852;-78
2021/11/03 01:31:58;;;;;;;30.90;23.60;;;;;;;9.37;73.10;99296.39;118858;1176;21879;-78
2021/11/03 01:34:26;;;;;;;30.80;22.50;;;;;;;9.39;73.14;99297.68;118496;1176;21871;-77
2021/11/03 01:36:54;;;;;;;30.70;23.30;;;;;;;9.41;73.14;99296.00;118742;1173;21884;-78
2021/11/03 01:39:22;;;;;;;25.30;22.60;;;;;;;9.42;72.96;99299.25;118927;1170;21896;-78
2021/11/03 01:41:51;;;;;;;27.70;23.10;;;;;;;9.41;72.71;99295.84;118997;1174;23460;-78
2021/11/03 01:44:19;;;;;;;27.60;22.70;;;;;;;9.39;72.59;99297.44;119181;1165;23597;-78
2021/11/03 01:47:17;;;;;;;28.10;23.50;;;;;;;9.40;72.73;99300.90;119010;1171;21849;-78
2021/11/03 01:49:55;;;;;;;28.70;22.50;;;;;;;9.40;72.92;99304.66;119001;1173;22178;-79
2021/11/03 01:52:22;;;;;;;26.30;21.30;;;;;;;9.43;73.05;99302.30;119402;1170;21883;-78
2021/11/03 01:54:56;;;;;;;27.30;22.00;;;;;;;9.46;72.98;99301.80;119246;1170;24081;-78
2021/11/03 01:57:34;;;;;;;27.30;20.80;;;;;;;9.47;72.70;99300.48;119287;1170;21917;-78
2021/11/03 02:00:20;;;;;;;27.00;22.10;;;;;;;9.44;72.62;99304.80;119257;1170;22238;-79
2021/11/03 02:03:01;;;;;;;26.30;21.00;;;;;;;9.45;72.77;99307.35;119271;1171;21862;-79
2021/11/03 02:05:30;;;;;;;25.10;20.70;;;;;;;9.47;72.75;99307.25;118566;1175;23516;-79
2021/11/03 02:08:04;;;;;;;24.00;20.10;;;;;;;9.50;72.71;99303.48;118792;1175;21877;-79
2021/11/03 02:10:32;;;;;;;22.30;19.40;;;;;;;9.52;72.53;99304.42;118769;1175;21905;-79
2021/11/03 02:13:01;;;;;;;25.10;21.00;;;;;;;9.53;72.28;99307.05;118564;1175;22489;-79
2021/11/03 02:15:29;;;;;;;24.20;19.90;;;;;;;9.53;72.18;99303.58;118797;1168;21907;-79
2021/11/03 02:17:57;;;;;;;30.00;21.90;;;;;;;9.52;72.12;99305.41;118870;1174;21875;-78
2021/11/03 02:20:27;;;;;;;33.60;25.50;;;;;;;9.54;72.08;99301.67;118919;1173;21859;-78
2021/11/03 02:23:16;;;;;;;30.80;23.40;;;;;;;9.54;71.92;99303.67;118819;1172;23482;-78
2021/11/03 02:26:02;;;;;;;28.90;23.40;;;;;;;9.50;71.83;99299.30;119215;1170;23625;-79
2021/11/03 02:28:32;;;;;;;26.00;23.00;;;;;;;9.49;71.88;99296.90;119304;1170;21870;-79
2021/11/03 02:31:00;;;;;;;25.10;22.40;;;;;;;9.49;71.82;99300.90;119284;1170;22881;-79
2021/11/03 02:33:32;;;;;;;24.30;20.10;;;;;;;9.49;71.78;99302.82;119286;1168;21903;-79
2021/11/03 02:36:06;;;;;;;25.10;20.50;;;;;;;9.46;71.54;99302.95;119186;1171;21846;-79
2021/11/03 02:38:45;;;;;;;24.00;19.70;;;;;;;9.42;71.53;99298.52;119267;1170;22033;-79
2021/11/03 02:41:18;;;;;;;26.10;20.60;;;;;;;9.39;71.68;99300.84;119255;1171;21881;-79
2021/11/03 02:43:59;;;;;;;27.10;22.70;;;;;;;9.40;71.83;99290.23;119336;1170;23427;-79
2021/11/03 02:46:27;;;;;;;26.30;20.30;;;;;;;9.42;71.74;99291.55;119378;1170;24145;-79
2021/11/03 02:48:55;;;;;;;29.80;22.70;;;;;;;9.43;71.54;99287.88;119284;1170;23406;-79
2021/11/03 02:51:38;;;;;;;30.50;23.10;;;;;;;9.45;71.50;99287.19;119258;1168;21874;-79
2021/11/03 02:54:21;;;;;;;30.30;23.20;;;;;;;9.43;71.51;99284.70;119178;1170;23511;-80
2021/11/03 02:56:54;;;;;;;28.90;22.50;;;;;;;9.38;71.38;99283.16;118880;1173;23418;-79
2021/11/03 02:59:33;;;;;;;24.70;21.80;;;;;;;9.37;71.48;99282.28;118893;1173;22199;-80
2021/11/03 03:02:05;;;;;;;24.00;20.70;;;;;;;9.36;71.39;99281.47;118744;1173;22578;-79
2021/11/03 03:04:39;;;;;;;26.60;21.10;;;;;;;9.35;71.41;99282.02;118803;1173;21860;-79
2021/11/03 03:07:10;;;;;;;23.60;21.10;;;;;;;9.33;71.30;99281.55;118795;1174;22446;-79
2021/11/03 03:09:38;;;;;;;29.10;22.00;;;;;;;9.31;71.34;99281.31;118873;1174;23508;-79
2021/11/03 03:12:14;;;;;;;24.20;20.60;;;;;;;9.29;71.26;99280.81;118887;1171;21873;-79
2021/11/03 03:14:50;;;;;;;23.00;20.40;;;;;;;9.26;71.22;99278.15;119247;1170;23388;-78
2021/11/03 03:17:20;;;;;;;23.00;20.60;;;;;;;9.24;71.40;99281.54;119283;1170;21878;-78
2021/11/03 03:19:51;;;;;;;23.90;19.80;;;;;;;9.24;71.34;99279.73;119287;1168;22145;-78
2021/11/03 03:22:20;;;;;;;22.70;20.30;;;;;;;9.22;71.43;99281.96;119234;1167;22614;-78
2021/11/03 03:24:54;;;;;;;24.50;21.00;;;;;;;9.20;71.50;99281.36;118901;1171;21879;-78
2021/11/03 03:27:25;;;;;;;21.90;19.60;;;;;;;9.18;71.45;99283.98;118828;1175;23606;-78
2021/11/03 03:29:53;;;;;;;23.80;20.30;;;;;;;9.15;71.40;99282.44;118853;1176;21927;-78
2021/11/03 03:32:28;;;;;;;22.10;18.40;;;;;;;9.13;71.36;99285.83;118763;1173;21863;-78
2021/11/03 03:34:57;;;;;;;23.30;18.80;;;;;;;9.13;71.37;99286.30;118446;1176;21871;-78
2021/11/03 03:37:29;;;;;;;22.30;18.10;;;;;;;9.11;71.40;99288.99;118782;1176;22385;-78
2021/11/03 03:40:01;;;;;;;23.10;18.90;;;;;;;9.10;71.47;99286.30;118746;1176;21890;-78
2021/11/03 03:42:29;;;;;;;26.00;18.60;;;;;;;9.09;71.52;99288.58;118599;1173;21877;-78
2021/11/03 03:44:57;;;;;;;21.30;19.00;;;;;;;9.10;71.49;99289.63;118988;1171;21858;-79
2021/11/03 03:47:28;;;;;;;23.00;17.60;;;;;;;9.10;71.38;99292.92;119556;1170;21887;-78
2021/11/03 03:50:01;;;;;;;20.70;18.20;;;;;;;9.09;71.34;99294.15;119234;1171;22255;-80
2021/11/03 03:52:32;;;;;;;22.90;20.40;;;;;;;9.06;71.19;99296.71;118949;1174;22315;-79
2021/11/03 03:55:07;;;;;;;27.90;20.40;;;;;;;8.99;70.88;99297.20;118831;1174;22958;-78
2021/11/03 03:57:35;;;;;;;24.70;22.10;;;;;;;8.96;71.18;99300.80;118780;1176;22889;-78
2021/11/03 04:00:09;;;;;;;25.70;21.40;;;;;;;8.94;71.27;99304.11;118630;1176;21885;-77
2021/11/03 04:02:44;;;;;;;30.90;24.50;;;;;;;8.92;71.14;99304.33;118724;1175;21877;-77
2021/11/03 04:05:15;;;;;;;26.70;22.30;;;;;;;8.88;70.88;99305.70;118746;1172;22705;-78
2021/11/03 04:07:44;;;;;;;26.80;22.00;;;;;;;8.83;70.87;99307.54;118843;1174;21898;-79
2021/11/03 04:10:16;;;;;;;25.60;19.90;;;;;;;8.78;70.88;99307.95;118874;1170;22888;-78
2021/11/03 04:12:47;;;;;;;28.50;25.50;;;;;;;8.72;70.93;99304.33;119324;1171;24122;-79
2021/11/03 04:15:16;;;;;;;27.40;24.20;;;;;;;8.64;70.91;99308.00;119260;1170;21857;-79
2021/11/03 04:17:44;;;;;;;31.10;25.80;;;;;;;8.58;70.94;99309.62;119285;1170;23543;-78
2021/11/03 04:20:16;;;;;;;28.40;24.10;;;;;;;8.52;70.83;99309.19;119242;1170;21908;-77
2021/11/03 04:22:44;;;;;;;33.10;26.00;;;;;;;8.44;70.97;99315.27;119297;1170;21892;-77
2021/11/03 04:25:15;;;;;;;25.90;22.60;;;;;;;8.39;71.22;99315.05;119023;1172;21879;-79
2021/11/03 04:27:45;;;;;;;33.40;26.70;;;;;;;8.32;71.41;99311.90;118862;1174;21868;-80
2021/11/03 04:30:20;;;;;;;30.30;25.90;;;;;;;8.27;71.45;99313.06;118439;1174;22756;-80
2021/11/03 04:32:48;;;;;;;35.60;27.20;;;;;;;8.22;71.62;99315.08;118425;1177;21936;-78
2021/11/03 04:35:16;;;;;;;34.90;28.90;;;;;;;8.16;71.67;99316.41;118285;1180;21886;-78
2021/11/03 04:37:44;;;;;;;33.50;28.50;;;;;;;8.07;71.67;99314.88;118182;1180;23496;-78
2021/11/03 04:40:17;;;;;;;30.90;27.60;;;;;;;7.99;71.90;99316.45;118296;1180;23526;-77
2021/11/03 04:42:48;;;;;;;29.10;25.30;;;;;;;7.96;72.31;99321.02;118162;1178;24152;-78
2021/11/03 04:45:18;;;;;;;30.90;26.60;;;;;;;7.92;72.39;99324.62;118066;1177;22659;-77
2021/11/03 04:47:47;;;;;;;31.10;26.40;;;;;;;7.86;72.28;99330.19;118504;1176;22750;-79
2021/11/03 04:50:25;;;;;;;28.10;25.10;;;;;;;7.75;72.17;99328.48;118476;1174;23455;-78
2021/11/03 04:52:56;;;;;;;31.70;26.70;;;;;;;7.65;72.46;99330.71;118288;1172;23420;-79
2021/11/03 04:55:28;;;;;;;38.30;30.40;;;;;;;7.55;72.62;99331.42;118732;1175;21866;-78
2021/11/03 04:57:56;;;;;;;36.70;30.80;;;;;;;7.47;72.75;99329.73;118838;1175;23437;-78
2021/11/03 05:00:28;;;;;;;37.90;30.40;;;;;;;7.37;72.87;99332.09;118622;1174;23528;-78
2021/11/03 05:02:58;;;;;;;37.30;29.20;;;;;;;7.26;73.14;99333.45;118869;1174;21970;-79
2021/11/03 05:05:27;;;;;;;36.20;30.90;;;;;;;7.20;73.56;99339.59;118782;1174;23438;-79
2021/11/03 05:07:56;;;;;;;38.40;34.20;;;;;;;7.13;73.65;99340.17;118976;1174;21886;-79
2021/11/03 05:10:24;;;;;;;43.10;36.90;;;;;;;7.11;74.06;99339.20;118949;1170;21865;-78
2021/11/03 05:12:56;;;;;;;41.80;35.00;;;;;;;7.11;74.23;99341.66;119282;1170;21878;-79
2021/11/03 05:15:25;;;;;;;46.50;35.60;;;;;;;7.12;74.60;99340.86;118851;1174;23611;-78
2021/11/03 05:17:54;;;;;;;38.20;34.00;;;;;;;7.15;74.85;99342.27;118506;1177;21880;-78
2021/11/03 05:20:22;;;;;;;41.40;37.00;;;;;;;7.18;74.88;99344.69;118506;1178;21866;-78
2021/11/03 05:22:53;;;;;;;37.60;33.50;;;;;;;7.19;74.65;99346.23;118544;1178;21872;-78
2021/11/03 05:25:27;;;;;;;37.70;32.60;;;;;;;7.17;74.44;99354.96;118497;1176;21905;-77
2021/11/03 05:27:57;;;;;;;38.00;34.00;;;;;;;7.14;74.44;99356.59;118564;1174;21859;-78
2021/11/03 05:30:28;;;;;;;37.20;33.40;;;;;;;7.10;74.31;99356.34;118530;1177;21881;-76
2021/11/03 05:32:57;;;;;;;38.40;32.20;;;;;;;7.07;74.52;99358.05;118239;1179;21868;-78
2021/11/03 05:35:26;;;;;;;37.80;33.70;;;;;;;7.02;74.35;99359.91;118159;1178;23436;-77
2021/11/03 05:37:54;;;;;;;39.00;33.60;;;;;;;6.99;74.47;99362.12;118389;1177;21889;-78
2021/11/03 05:40:28;;;;;;;40.60;35.00;;;;;;;6.93;74.27;99367.23;118617;1172;22888;-78
2021/11/03 05:42:59;;;;;;;39.10;34.50;;;;;;;6.82;74.13;99375.26;118639;1174;22945;-77
2021/11/03 05:45:27;;;;;;;39.10;35.10;;;;;;;6.69;74.14;99378.10;118524;1163;21886;-77
2021/11/03 05:47:58;;;;;;;40.00;35.70;;;;;;;6.60;74.41;99378.57;118744;1169;21947;-77
2021/11/03 05:50:32;;;;;;;42.80;38.50;;;;;;;6.52;74.62;99384.62;118772;1173;21934;-77
2021/11/03 05:53:01;;;;;;;44.10;36.80;;;;;;;6.47;74.83;99391.67;118733;1176;23446;-77
2021/11/03 05:55:30;;;;;;;46.10;39.60;;;;;;;6.44;75.12;99396.73;118595;1176;21872;-76
2021/11/03 05:57:59;;;;;;;45.20;39.20;;;;;;;6.43;75.18;99398.74;119106;1170;21855;-76
2021/11/03 06:00:36;;;;;;;41.30;37.20;;;;;;;6.43;75.31;99402.47;119361;1170;23519;-76
2021/11/03 06:03:05;;;;;;;42.50;36.00;;;;;;;6.43;75.52;99408.23;119279;1170;22846;-77
2021/11/03 06:05:35;;;;;;;40.50;36.20;;;;;;;6.46;75.72;99410.65;119288;1170;22625;-76
2021/11/03 06:08:06;;;;;;;39.20;34.50;;;;;;;6.48;75.58;99413.92;119256;1170;21872;-77
2021/11/03 06:10:40;;;;;;;40.60;34.70;;;;;;;6.49;75.60;99416.98;118877;1168;22627;-76
2021/11/03 06:13:10;;;;;;;40.30;35.50;;;;;;;6.50;75.61;99419.02;118852;1175;23419;-76
2021/11/03 06:15:41;;;;;;;36.70;32.80;;;;;;;6.50;75.50;99422.34;118802;1176;21890;-77
2021/11/03 06:18:17;;;;;;;41.00;36.80;;;;;;;6.51;75.61;99424.83;118578;1175;21877;-76
2021/11/03 06:20:59;;;;;;;41.60;36.20;;;;;;;6.52;75.74;99425.55;118873;1175;23422;-77
2021/11/03 06:23:29;;;;;;;38.40;34.30;;;;;;;6.54;75.73;99423.48;118763;1174;21873;-77
2021/11/03 06:25:58;;;;;;;41.30;36.70;;;;;;;6.54;75.61;99425.55;118932;1170;23605;-77
2021/11/03 06:28:26;;;;;;;41.30;36.80;;;;;;;6.56;75.67;99424.34;119042;1170;22986;-76
2021/11/03 06:30:54;;;;;;;35.40;31.70;;;;;;;6.57;75.76;99431.70;119210;1170;22920;-76
2021/11/03 06:33:22;;;;;;;37.00;32.50;;;;;;;6.55;75.51;99430.50;119294;1170;22616;-76
2021/11/03 06:35:51;;;;;;;35.70;32.00;;;;;;;6.53;75.57;99434.00;118918;1171;22105;-75
2021/11/03 06:38:20;;;;;;;39.20;35.00;;;;;;;6.55;75.81;99431.58;118981;1174;21858;-76
2021/11/03 06:40:48;;;;;;;43.40;38.80;;;;;;;6.57;75.90;99429.90;118896;1174;23621;-77
2021/11/03 06:43:17;;;;;;;46.60;41.70;;;;;;;6.62;75.98;99429.65;118959;1171;23385;-77
2021/11/03 06:45:54;;;;;;;43.80;39.30;;;;;;;6.64;75.89;99436.20;118760;1161;22886;-80
2021/11/03 06:48:22;;;;;;;45.30;36.40;;;;;;;6.65;75.79;99439.81;118676;1174;23624;-76
2021/11/03 06:50:53;;;;;;;42.20;37.00;;;;;;;6.64;75.72;99439.67;118792;1175;21856;-77
2021/11/03 06:53:23;;;;;;;43.40;37.00;;;;;;;6.65;75.68;99441.41;118993;1166;22271;-86
2021/11/03 06:55:53;;;;;;;42.00;37.20;;;;;;;6.61;75.47;99441.09;119417;1170;21864;-77
2021/11/03 06:58:22;;;;;;;46.70;38.40;;;;;;;6.57;75.47;99451.78;119294;1168;23419;-77
2021/11/03 07:00:53;;;;;;;46.00;39.10;;;;;;;6.57;75.53;99458.45;119210;1170;22076;-77
2021/11/03 07:03:24;;;;;;;41.30;35.80;;;;;;;6.56;75.59;99463.46;119310;1170;21861;-77
2021/11/03 07:05:55;;;;;;;42.10;36.30;;;;;;;6.57;75.88;99461.98;119218;1170;22881;-78
2021/11/03 07:08:24;;;;;;;45.10;38.60;;;;;;;6.61;76.08;99459.44;119236;1170;22515;-77
2021/11/03 07:10:59;;;;;;;41.80;37.30;;;;;;;6.64;75.89;99460.23;119264;1171;22901;-78
2021/11/03 07:13:29;;;;;;;50.30;41.40;;;;;;;6.63;75.95;99463.66;118823;1174;22809;-78
2021/11/03 07:15:57;;;;;;;56.40;42.50;;;;;;;6.69;76.43;99458.27;118793;1174;22457;-78
2021/11/03 07:18:25;;;;;;;65.80;50.30;;;;;;;6.80;76.61;99460.05;118776;1172;21873;-79
2021/11/03 07:20:54;;;;;;;75.30;59.70;;;;;;;6.89;76.51;99462.38;118755;1170;23591;-79
2021/11/03 07:23:26;;;;;;;155.20;110.80;;;;;;;6.95;76.28;99465.78;119001;1171;23515;-79
2021/11/03 07:25:54;;;;;;;;;;;;;;;6.98;76.19;99471.02;118980;1171;21889;-79
2021/11/03 07:28:24;;;;;;;131.20;82.40;;;;;;;6.97;76.40;99476.89;119267;1172;21886;-79
2021/11/03 07:30:53;;;;;;;103.60;68.40;;;;;;;7.03;76.44;99474.36;119337;1170;23511;-79
2021/11/03 07:33:22;;;;;;;76.70;54.80;;;;;;;7.13;76.42;99472.73;120064;1170;21880;-79
2021/11/03 07:35:50;;;;;;;77.40;50.90;;;;;;;7.21;76.31;99475.95;119635;1172;23410;-82
2021/11/03 07:38:19;;;;;;;56.10;45.10;;;;;;;7.28;76.18;99482.83;119471;1171;21847;-78
2021/11/03 07:40:51;;;;;;;58.70;46.00;;;;;;;7.37;76.27;99485.17;119296;1173;22885;-75
2021/11/03 07:43:28;;;;;;;67.80;46.20;;;;;;;7.47;76.16;99483.17;120107;1171;21865;-77
2021/11/03 07:45:58;;;;;;;81.10;52.70;;;;;;;7.58;76.03;99485.34;119824;1171;22637;-78
2021/11/03 07:48:29;;;;;;;84.80;62.70;;;;;;;7.68;75.96;99483.14;119263;1174;21885;-78
2021/11/03 07:51:06;;;;;;;62.30;50.70;;;;;;;7.82;75.95;99487.29;119262;1174;22578;-78
2021/11/03 07:53:35;;;;;;;63.30;49.40;;;;;;;7.97;75.89;99486.63;119121;1176;21870;-78
2021/11/03 07:56:07;;;;;;;50.70;40.10;;;;;;;8.12;75.88;99490.30;118899;1174;22299;-78
2021/11/03 07:58:38;;;;;;;71.20;53.40;;;;;;;8.28;75.71;99488.16;118868;1174;21878;-78
2021/11/03 08:01:08;;;;;;;43.40;37.10;;;;;;;8.45;75.45;99490.68;119191;1174;22250;-78
2021/11/03 08:03:38;;;;;;;47.70;36.40;;;;;;;8.66;75.62;99487.76;119345;1174;22050;-78
2021/11/03 08:06:12;;;;;;;43.20;35.40;;;;;;;8.85;75.54;99486.80;119556;1170;22577;-78
2021/11/03 08:08:49;;;;;;;38.60;30.90;;;;;;;9.06;75.07;99486.77;119975;1170;23461;-81
2021/11/03 08:11:18;;;;;;;34.10;29.40;;;;;;;9.19;74.14;99490.70;119387;1170;23406;-78
2021/11/03 08:13:45;;;;;;;38.00;33.30;;;;;;;9.28;73.52;99496.11;119732;1168;22559;-78
2021/11/03 08:16:16;;;;;;;39.90;33.50;;;;;;;9.41;73.30;99498.44;119618;1168;21848;-78
2021/11/03 08:18:46;;;;;;;37.00;33.10;;;;;;;9.54;72.95;99494.29;120019;1170;24109;-78
2021/11/03 08:21:15;;;;;;;31.80;27.70;;;;;;;9.71;72.91;99497.19;119769;1171;21882;-78
2021/11/03 08:23:43;;;;;;;33.60;29.20;;;;;;;9.89;72.73;99501.71;120316;1170;21827;-78
2021/11/03 08:26:15;;;;;;;34.50;29.00;;;;;;;10.06;72.15;99499.33;119899;1170;22048;-82
2021/11/03 08:28:43;;;;;;;33.50;30.20;;;;;;;10.20;71.40;99497.86;119584;1170;21848;-79
2021/11/03 08:31:14;;;;;;;30.90;27.60;;;;;;;10.29;71.01;99500.06;119350;1172;22631;-79
2021/11/03 08:33:45;;;;;;;27.20;24.20;;;;;;;10.35;70.18;99498.30;119347;1171;22265;-79
2021/11/03 08:36:17;;;;;;;29.90;23.20;;;;;;;10.39;69.98;99500.66;119268;1172;23538;-80
2021/11/03 08:39:06;;;;;;;25.90;23.10;;;;;;;10.48;70.09;99506.53;119607;1170;21864;-81
2021/11/03 08:41:37;;;;;;;31.60;27.30;;;;;;;10.58;69.78;99508.52;119577;1170;22815;-78
2021/11/03 08:44:05;;;;;;;30.60;27.30;;;;;;;10.63;69.06;99512.11;119411;1170;21879;-79
2021/11/03 08:46:34;;;;;;;29.00;25.80;;;;;;;10.61;68.33;99520.98;119316;1172;21882;-79
2021/11/03 08:49:04;;;;;;;26.30;23.60;;;;;;;10.61;68.14;99525.98;119291;1171;21878;-79
2021/11/03 08:51:33;;;;;;;26.10;23.40;;;;;;;10.58;67.84;99528.77;119165;1173;21840;-79
2021/11/03 08:54:04;;;;;;;33.30;29.70;;;;;;;10.56;67.51;99531.81;119152;1174;21855;-79
2021/11/03 08:56:32;;;;;;;30.40;26.40;;;;;;;10.57;67.72;99531.39;119170;1172;21854;-79
2021/11/03 08:59:02;;;;;;;29.90;25.10;;;;;;;10.62;67.82;99532.30;119155;1172;21864;-79
2021/11/03 09:01:30;;;;;;;27.00;21.30;;;;;;;10.71;67.74;99535.52;119407;1172;22267;-80
2021/11/03 09:03:59;;;;;;;25.90;22.50;;;;;;;10.75;67.34;99537.63;119346;1170;21935;-80
2021/11/03 09:06:26;;;;;;;27.60;24.30;;;;;;;10.82;67.47;99537.09;119389;1170;21837;-80
2021/11/03 09:08:54;;;;;;;26.10;23.40;;;;;;;10.91;67.39;99535.39;119425;1170;23518;-80
2021/11/03 09:11:22;;;;;;;21.60;19.50;;;;;;;11.00;67.09;99540.63;119410;1170;21861;-80
2021/11/03 09:13:52;;;;;;;19.30;17.30;;;;;;;11.09;66.71;99547.54;119429;1170;22882;-80
2021/11/03 09:16:22;;;;;;;20.00;17.90;;;;;;;11.13;66.45;99546.70;119434;1170;22923;-80
2021/11/03 09:19:40;;;;;;;27.10;22.20;;;;;;;11.19;66.32;99547.90;119470;1170;21852;-78
2021/11/03 09:22:08;;;;;;;23.50;20.90;;;;;;;11.23;65.95;99546.13;119432;1170;22833;-79
2021/11/03 09:24:38;;;;;;;20.50;18.40;;;;;;;11.31;65.97;99547.38;119385;1170;21862;-80
2021/11/03 09:27:14;;;;;;;19.70;17.70;;;;;;;11.42;65.87;99547.90;119430;1168;22002;-80
2021/11/03 09:29:50;;;;;;;19.40;17.60;;;;;;;11.52;65.19;99549.02;119399;1170;21850;-79
2021/11/03 09:32:25;;;;;;;18.00;16.10;;;;;;;11.57;64.92;99545.91;119587;1170;22797;-79
2021/11/03 09:35:00;;;;;;;15.40;13.90;;;;;;;11.70;65.04;99553.08;119514;1171;22137;-80
2021/11/03 09:37:29;;;;;;;16.30;14.60;;;;;;;11.86;64.78;99552.14;119046;1174;22837;-81
2021/11/03 09:39:58;;;;;;;18.60;15.30;;;;;;;12.00;64.28;99556.91;119131;1174;21900;-78
2021/11/03 09:42:27;;;;;;;18.80;16.50;;;;;;;12.10;63.51;99555.95;118974;1174;23066;-78
2021/11/03 09:44:56;;;;;;;17.20;15.40;;;;;;;12.11;62.57;99554.91;119150;1174;22938;-80
2021/11/03 09:47:33;;;;;;;18.40;16.70;;;;;;;12.04;62.03;99550.20;119170;1174;21866;-80
2021/11/03 09:50:22;;;;;;;19.90;15.60;;;;;;;11.98;61.98;99550.02;119129;1174;23595;-80
2021/11/03 09:53:01;;;;;;;18.20;13.50;;;;;;;12.01;62.40;99555.32;119374;1174;21864;-80
2021/11/03 09:55:33;;;;;;;14.60;12.10;;;;;;;12.10;62.32;99552.91;119496;1170;21903;-81
2021/11/03 09:58:03;;;;;;;16.80;13.80;;;;;;;12.13;61.69;99555.67;119591;1170;22883;-80
2021/11/03 10:00:40;;;;;;;19.50;16.00;;;;;;;12.14;61.45;99557.83;119771;1170;21889;-81
2021/11/03 10:03:43;;;;;;;16.30;14.60;;;;;;;12.22;61.83;99557.48;119528;1170;21862;-80
2021/11/03 10:06:44;;;;;;;17.60;15.80;;;;;;;12.35;61.74;99553.63;119431;1170;23391;-80
2021/11/03 10:09:12;;;;;;;14.60;13.20;;;;;;;12.46;61.33;99550.73;119473;1170;22936;-80
2021/11/03 10:11:46;;;;;;;14.70;13.20;;;;;;;12.47;60.45;99548.90;119460;1170;21860;-81
2021/11/03 10:14:15;;;;;;;14.40;12.40;;;;;;;12.38;59.91;99551.20;119441;1170;23532;-80
2021/11/03 10:16:49;;;;;;;13.50;12.20;;;;;;;12.27;59.64;99550.58;119415;1164;21952;-80
2021/11/03 10:19:18;;;;;;;12.60;11.30;;;;;;;12.19;59.76;99550.55;119520;1170;22883;-80
2021/11/03 10:22:30;;;;;;;12.20;11.10;;;;;;;12.21;60.31;99548.12;119659;1161;22179;-81
2021/11/03 10:25:37;;;;;;;11.80;10.70;;;;;;;12.23;59.99;99548.22;119123;1174;21866;-80
2021/11/03 10:28:04;;;;;;;14.80;11.30;;;;;;;12.34;60.32;99552.69;118500;1179;23533;-80
2021/11/03 10:30:51;;;;;;;12.70;11.40;;;;;;;12.59;60.94;99555.79;118496;1179;21930;-81
2021/11/03 10:33:36;;;;;;;12.40;11.10;;;;;;;13.16;62.19;99554.66;118119;1179;22024;-79
2021/11/03 10:36:22;;;;;;;11.80;10.40;;;;;;;13.95;62.02;99558.16;117934;1182;21870;-80
2021/11/03 10:39:04;;;;;;;10.40;9.20;;;;;;;14.86;60.20;99556.72;117416;1186;21925;-80
2021/11/03 10:41:35;;;;;;;24.30;18.50;;;;;;;15.41;57.49;99555.89;117421;1186;22628;-81
2021/11/03 10:44:17;;;;;;;10.50;9.50;;;;;;;15.90;55.75;99547.81;117524;1183;23549;-81
2021/11/03 10:46:53;;;;;;;;;;;;;;;16.35;53.73;99547.86;117787;1186;23483;-80
2021/11/03 10:49:51;;;;;;;9.40;8.20;;;;;;;16.76;52.94;99548.00;117448;1185;21863;-80
2021/11/03 10:52:59;;;;;;;7.90;6.50;;;;;;;17.30;50.95;99545.39;117185;1189;21959;-79
2021/11/03 10:55:34;;;;;;;10.10;7.20;;;;;;;17.35;47.38;99538.55;117431;1186;23594;-81
2021/11/03 10:58:11;;;;;;;9.40;7.30;;;;;;;16.87;46.16;99536.65;117532;1183;21889;-80
2021/11/03 11:00:57;;;;;;;9.50;6.50;;;;;;;16.46;46.40;99538.84;117387;1186;24241;-82
2021/11/03 11:03:38;;;;;;;6.90;6.20;;;;;;;15.96;46.85;99537.55;118180;1180;23448;-80
2021/11/03 11:06:26;;;;;;;8.70;7.80;;;;;;;15.79;48.40;99536.64;119099;1177;21873;-81
2021/11/03 11:09:03;;;;;;;9.60;7.60;;;;;;;15.74;48.51;99529.08;118891;1177;21898;-81
2021/11/03 11:11:35;;;;;;;7.10;5.20;;;;;;;15.70;48.51;99528.70;119355;1177;21866;-82
2021/11/03 11:14:22;;;;;;;13.90;4.90;;;;;;;15.57;47.63;99524.30;119584;1176;21863;-80
2021/11/03 11:17:15;;;;;;;7.10;5.30;;;;;;;15.23;46.94;99523.95;119203;1177;21905;-79
2021/11/03 11:20:21;;;;;;;6.40;5.40;;;;;;;14.82;47.29;99520.86;118571;1177;21854;-81
2021/11/03 11:23:15;;;;;;;10.00;5.60;;;;;;;14.44;48.09;99519.23;118511;1179;21969;-81
2021/11/03 11:26:22;;;;;;;4.30;3.90;;;;;;;14.13;48.40;99519.83;119009;1175;21950;-81
2021/11/03 11:29:17;;;;;;;4.10;3.40;;;;;;;13.79;48.62;99517.75;118158;1180;22723;-80
2021/11/03 11:31:46;;;;;;;7.30;4.70;;;;;;;13.54;49.34;99513.28;118463;1180;22624;-80
2021/11/03 11:34:23;;;;;;;4.70;4.10;;;;;;;13.44;49.95;99509.95;118365;1180;22214;-80
2021/11/03 11:37:02;;;;;;;7.20;4.80;;;;;;;13.37;50.39;99502.02;118238;1179;21873;-80
2021/11/03 11:40:02;;;;;;;5.00;4.20;;;;;;;13.35;50.68;99495.73;118576;1179;22951;-80
2021/11/03 11:42:50;;;;;;;5.00;4.50;;;;;;;13.28;50.55;99491.57;118474;1179;21863;-80
2021/11/03 11:45:27;;;;;;;5.90;5.00;;;;;;;13.21;50.55;99489.14;118768;1175;21958;-80